createdAt,value
2019-03-27T00:01:39.021Z,53.70
2019-03-27T00:04:05.537Z,53.80
2019-03-27T00:06:32.213Z,53.90
2019-03-27T00:08:58.634Z,54.00
2019-03-27T00:11:25.288Z,54.20
2019-03-27T00:13:51.959Z,54.40
2019-03-27T00:16:18.648Z,54.40
2019-03-27T00:18:45.303Z,54.50
2019-03-27T00:21:12.039Z,54.60
2019-03-27T00:23:38.595Z,54.70
2019-03-27T00:26:05.421Z,54.70
2019-03-27T00:28:31.763Z,54.70
2019-03-27T00:30:58.196Z,54.80
2019-03-27T00:33:24.834Z,54.70
2019-03-27T00:35:51.325Z,54.70
2019-03-27T00:38:17.976Z,54.80
2019-03-27T00:40:44.522Z,54.70
2019-03-27T00:43:10.960Z,55.40
2019-03-27T00:45:37.390Z,54.80
2019-03-27T00:48:03.756Z,54.70
2019-03-27T00:50:30.268Z,54.70
2019-03-27T00:52:56.690Z,54.70
2019-03-27T00:55:23.214Z,54.70
2019-03-27T00:57:50.039Z,54.60
2019-03-27T01:00:22.916Z,54.60
2019-03-27T01:02:49.591Z,54.60
2019-03-27T01:05:16.055Z,54.60
2019-03-27T01:07:42.384Z,54.60
2019-03-27T01:10:08.909Z,54.60
2019-03-27T01:12:35.768Z,54.60
2019-03-27T01:15:04.401Z,54.60
2019-03-27T01:17:30.950Z,54.60
2019-03-27T01:19:57.436Z,54.50
2019-03-27T01:22:24.020Z,54.60
2019-03-27T01:24:50.588Z,54.60
2019-03-27T01:27:17.004Z,54.50
2019-03-27T01:29:43.419Z,54.60
2019-03-27T01:32:09.858Z,54.60
2019-03-27T01:34:36.444Z,54.60
2019-03-27T01:37:02.751Z,54.50
2019-03-27T01:39:29.155Z,54.70
2019-03-27T01:41:55.644Z,54.80
2019-03-27T01:44:22.230Z,54.70
2019-03-27T01:46:49.003Z,54.60
2019-03-27T01:49:15.316Z,54.60
2019-03-27T01:51:42.525Z,54.70
2019-03-27T01:54:09.074Z,54.80
2019-03-27T01:56:35.492Z,54.80
2019-03-27T01:59:01.946Z,54.80
2019-03-27T02:01:28.555Z,54.90
2019-03-27T02:03:55.072Z,55.20
2019-03-27T02:06:21.572Z,55.00
2019-03-27T02:08:47.887Z,55.70
2019-03-27T02:11:14.727Z,55.20
2019-03-27T02:13:40.983Z,55.40
2019-03-27T02:16:07.782Z,55.40
2019-03-27T02:18:34.335Z,55.50
2019-03-27T02:21:01.000Z,55.50
2019-03-27T02:23:27.663Z,55.50
2019-03-27T02:25:54.183Z,55.50
2019-03-27T02:28:20.709Z,55.60
2019-03-27T02:30:47.232Z,55.70
2019-03-27T02:33:13.678Z,55.60
2019-03-27T02:35:40.110Z,55.60
2019-03-27T02:38:06.573Z,55.60
2019-03-27T02:40:32.850Z,55.50
2019-03-27T02:42:59.284Z,55.50
2019-03-27T02:45:25.601Z,55.60
2019-03-27T02:47:52.158Z,55.60
2019-03-27T02:50:18.463Z,55.50
2019-03-27T02:52:46.145Z,55.50
2019-03-27T02:55:12.698Z,55.50
2019-03-27T02:57:39.416Z,55.70
2019-03-27T03:00:08.864Z,55.70
2019-03-27T03:02:35.277Z,55.70
2019-03-27T03:05:01.702Z,55.70
2019-03-27T03:07:28.251Z,55.80
2019-03-27T03:09:54.781Z,55.70
2019-03-27T03:12:21.435Z,55.70
2019-03-27T03:14:47.864Z,55.70
2019-03-27T03:17:14.259Z,55.70
2019-03-27T03:19:40.612Z,55.70
2019-03-27T03:22:07.259Z,55.70
2019-03-27T03:24:33.800Z,55.70
2019-03-27T03:27:00.211Z,55.60
2019-03-27T03:29:26.727Z,55.60
2019-03-27T03:31:53.059Z,55.50
2019-03-27T03:34:21.580Z,56.00
2019-03-27T03:36:48.198Z,55.80
2019-03-27T03:39:14.717Z,56.00
2019-03-27T03:41:41.249Z,57.20
2019-03-27T03:44:12.279Z,56.60
2019-03-27T03:46:39.457Z,56.50
2019-03-27T03:49:14.129Z,56.90
2019-03-27T03:51:40.852Z,57.00
2019-03-27T03:54:07.176Z,57.00
2019-03-27T03:56:40.420Z,57.20
2019-03-27T03:59:28.569Z,57.20
2019-03-27T04:01:55.317Z,57.10
2019-03-27T04:04:21.780Z,57.70
2019-03-27T04:06:48.141Z,56.90
2019-03-27T04:09:14.441Z,56.70
2019-03-27T04:11:40.843Z,56.70
2019-03-27T04:14:07.308Z,56.60
2019-03-27T04:16:33.932Z,56.50
2019-03-27T04:19:00.472Z,56.70
2019-03-27T04:21:27.225Z,56.70
2019-03-27T04:23:53.634Z,56.90
2019-03-27T04:26:20.060Z,57.00
2019-03-27T04:28:46.476Z,57.10
2019-03-27T04:31:12.796Z,57.10
2019-03-27T04:33:39.343Z,57.30
2019-03-27T04:36:05.866Z,57.30
2019-03-27T04:38:32.384Z,57.30
2019-03-27T04:40:58.830Z,57.30
2019-03-27T04:43:25.272Z,57.30
2019-03-27T04:45:51.751Z,57.10
2019-03-27T04:48:20.093Z,57.00
2019-03-27T04:50:46.611Z,56.90
2019-03-27T04:53:13.031Z,56.80
2019-03-27T04:55:39.365Z,56.80
2019-03-27T04:58:05.904Z,56.90
2019-03-27T05:00:32.343Z,56.80
2019-03-27T05:02:58.880Z,56.70
2019-03-27T05:05:25.319Z,56.70
2019-03-27T05:07:51.638Z,56.70
2019-03-27T05:10:18.165Z,56.50
2019-03-27T05:12:44.585Z,56.50
2019-03-27T05:15:11.119Z,56.80
2019-03-27T05:17:45.655Z,56.40
2019-03-27T05:20:08.499Z,56.30
2019-03-27T05:22:34.983Z,56.20
2019-03-27T05:25:01.302Z,56.10
2019-03-27T05:27:27.607Z,56.10
2019-03-27T05:29:53.931Z,56.00
2019-03-27T05:32:20.441Z,55.90
2019-03-27T05:34:46.771Z,55.90
2019-03-27T05:37:13.265Z,55.80
2019-03-27T05:39:39.780Z,55.70
2019-03-27T05:42:06.306Z,55.50
2019-03-27T05:44:32.809Z,55.50
2019-03-27T05:46:59.300Z,55.60
2019-03-27T05:49:25.687Z,55.60
2019-03-27T05:51:52.331Z,55.40
2019-03-27T05:54:19.624Z,55.50
2019-03-27T05:56:46.475Z,55.50
2019-03-27T05:59:12.985Z,55.50
2019-03-27T06:01:39.283Z,55.50
2019-03-27T06:04:05.689Z,55.50
2019-03-27T06:06:32.143Z,55.50
2019-03-27T06:08:58.755Z,55.50
2019-03-27T06:11:25.082Z,55.40
2019-03-27T06:13:51.587Z,55.40
2019-03-27T06:16:17.887Z,55.40
2019-03-27T06:18:44.207Z,55.30
2019-03-27T06:21:10.741Z,55.40
2019-03-27T06:23:37.375Z,55.40
2019-03-27T06:26:03.969Z,55.40
2019-03-27T06:28:30.255Z,55.40
2019-03-27T06:30:56.620Z,55.30
2019-03-27T06:33:23.299Z,55.30
2019-03-27T06:35:50.417Z,55.30
2019-03-27T06:38:16.676Z,55.30
2019-03-27T06:40:42.983Z,55.40
2019-03-27T06:43:09.336Z,55.30
2019-03-27T06:45:35.633Z,55.40
2019-03-27T06:48:02.258Z,56.00
2019-03-27T06:50:29.162Z,55.40
2019-03-27T06:52:55.975Z,55.40
2019-03-27T06:55:23.811Z,55.40
2019-03-27T06:57:50.327Z,55.40
2019-03-27T07:00:20.614Z,55.40
2019-03-27T07:02:47.170Z,56.00
2019-03-27T07:05:13.587Z,55.40
2019-03-27T07:07:40.018Z,55.40
2019-03-27T07:10:06.533Z,55.40
2019-03-27T07:12:32.966Z,55.40
2019-03-27T07:14:59.394Z,55.50
2019-03-27T07:17:26.150Z,55.50
2019-03-27T07:19:56.612Z,55.40
2019-03-27T07:22:23.195Z,55.60
2019-03-27T07:24:49.727Z,55.70
2019-03-27T07:27:16.574Z,55.90
2019-03-27T07:29:42.941Z,55.90
2019-03-27T07:32:09.589Z,55.90
2019-03-27T07:34:36.007Z,55.90
2019-03-27T07:37:02.322Z,55.80
2019-03-27T07:39:28.876Z,55.70
2019-03-27T07:41:55.362Z,55.80
2019-03-27T07:44:23.562Z,55.70
2019-03-27T07:46:50.316Z,55.70
2019-03-27T07:49:16.627Z,55.60
2019-03-27T07:51:43.172Z,55.50
2019-03-27T07:54:09.695Z,55.50
2019-03-27T07:56:39.201Z,55.50
2019-03-27T07:59:25.466Z,55.50
2019-03-27T08:01:52.013Z,55.30
2019-03-27T08:04:20.359Z,55.20
2019-03-27T08:06:46.881Z,55.30
2019-03-27T08:09:13.194Z,55.10
2019-03-27T08:11:39.874Z,54.90
2019-03-27T08:14:06.438Z,54.90
2019-03-27T08:16:32.880Z,54.90
2019-03-27T08:19:07.537Z,55.10
2019-03-27T08:21:30.872Z,55.10
2019-03-27T08:23:56.066Z,55.10
2019-03-27T08:26:22.456Z,55.10
2019-03-27T08:28:49.028Z,55.10
2019-03-27T08:31:15.423Z,55.10
2019-03-27T08:33:42.139Z,55.10
2019-03-27T08:36:08.480Z,55.10
2019-03-27T08:38:35.050Z,54.90
2019-03-27T08:41:01.388Z,54.90
2019-03-27T08:43:27.787Z,54.80
2019-03-27T08:45:54.211Z,54.70
2019-03-27T08:48:20.640Z,54.50
2019-03-27T08:50:46.951Z,54.30
2019-03-27T08:53:13.390Z,54.30
2019-03-27T08:55:39.704Z,54.30
2019-03-27T08:58:06.055Z,54.40
2019-03-27T09:00:42.201Z,54.40
2019-03-27T09:03:08.998Z,54.30
2019-03-27T09:05:35.332Z,54.20
2019-03-27T09:08:02.100Z,54.20
2019-03-27T09:10:28.479Z,54.20
2019-03-27T09:12:55.021Z,54.10
2019-03-27T09:15:21.332Z,54.00
2019-03-27T09:17:47.772Z,53.90
2019-03-27T09:20:14.474Z,53.80
2019-03-27T09:22:40.915Z,53.70
2019-03-27T09:25:07.492Z,53.60
2019-03-27T09:27:34.075Z,53.50
2019-03-27T09:30:00.510Z,53.50
2019-03-27T09:32:26.770Z,53.30
2019-03-27T09:34:53.188Z,53.20
2019-03-27T09:37:19.513Z,53.80
2019-03-27T09:39:45.937Z,53.00
2019-03-27T09:42:12.371Z,52.90
2019-03-27T09:44:38.792Z,52.90
2019-03-27T09:47:05.241Z,52.80
2019-03-27T09:49:31.683Z,52.60
2019-03-27T09:52:04.127Z,52.50
2019-03-27T09:54:30.752Z,52.60
2019-03-27T09:56:57.200Z,53.50
2019-03-27T09:59:23.630Z,53.90
2019-03-27T10:01:49.967Z,53.90
2019-03-27T10:04:16.455Z,53.90
2019-03-27T10:06:42.774Z,54.60
2019-03-27T10:09:09.077Z,54.00
2019-03-27T10:11:35.388Z,54.10
2019-03-27T10:14:02.588Z,54.10
2019-03-27T10:16:28.899Z,54.10
2019-03-27T10:18:55.780Z,53.90
2019-03-27T10:21:22.202Z,53.80
2019-03-27T10:23:48.955Z,53.70
2019-03-27T10:26:15.293Z,53.60
2019-03-27T10:28:41.863Z,53.50
2019-03-27T10:31:08.164Z,53.20
2019-03-27T10:33:34.712Z,53.00
2019-03-27T10:36:01.130Z,52.80
2019-03-27T10:38:27.581Z,52.80
2019-03-27T10:40:53.888Z,52.40
2019-03-27T10:43:20.361Z,52.20
2019-03-27T10:45:47.202Z,52.10
2019-03-27T10:48:14.055Z,52.10
2019-03-27T10:50:40.388Z,51.70
2019-03-27T10:53:06.800Z,51.60
2019-03-27T10:55:34.624Z,51.50
2019-03-27T10:58:01.243Z,51.40
2019-03-27T11:00:27.789Z,51.20
2019-03-27T11:02:54.123Z,51.10
2019-03-27T11:05:20.431Z,50.90
2019-03-27T11:07:46.875Z,51.20
2019-03-27T11:10:13.311Z,51.30
2019-03-27T11:12:40.041Z,51.80
2019-03-27T11:15:06.899Z,52.20
2019-03-27T11:17:33.209Z,52.10
2019-03-27T11:19:59.665Z,52.20
2019-03-27T11:22:26.196Z,52.10
2019-03-27T11:24:52.505Z,52.00
2019-03-27T11:27:19.102Z,51.70
2019-03-27T11:29:45.414Z,51.70
2019-03-27T11:32:12.384Z,51.50
2019-03-27T11:34:38.712Z,51.40
2019-03-27T11:37:06.509Z,51.40
2019-03-27T11:39:32.939Z,51.40
2019-03-27T11:42:00.806Z,51.30
2019-03-27T11:44:27.675Z,51.20
2019-03-27T11:46:54.344Z,51.10
2019-03-27T11:49:21.324Z,51.50
2019-03-27T11:51:47.759Z,50.80
2019-03-27T11:54:14.500Z,50.70
2019-03-27T11:56:40.756Z,50.70
2019-03-27T11:59:07.084Z,50.50
2019-03-27T12:01:39.659Z,50.50
2019-03-27T12:04:01.530Z,50.30
2019-03-27T12:06:27.848Z,50.50
2019-03-27T12:08:54.632Z,50.20
2019-03-27T12:11:21.170Z,50.70
2019-03-27T12:13:47.635Z,50.00
2019-03-27T12:16:13.953Z,49.80
2019-03-27T12:18:40.364Z,49.90
2019-03-27T12:21:06.803Z,49.80
2019-03-27T12:23:33.219Z,49.70
2019-03-27T12:25:59.867Z,49.70
2019-03-27T12:28:26.171Z,49.60
2019-03-27T12:30:52.679Z,49.50
2019-03-27T12:33:19.215Z,49.50
2019-03-27T12:35:45.527Z,49.30
2019-03-27T12:38:11.967Z,49.20
2019-03-27T12:40:38.483Z,49.20
2019-03-27T12:43:04.784Z,48.80
2019-03-27T12:45:31.316Z,48.90
2019-03-27T12:47:58.080Z,48.80
2019-03-27T12:50:24.482Z,48.80
2019-03-27T12:52:50.996Z,48.80
2019-03-27T12:55:17.447Z,48.70
2019-03-27T12:57:46.546Z,48.70
2019-03-27T13:00:12.925Z,48.80
2019-03-27T13:02:39.441Z,48.60
2019-03-27T13:05:05.800Z,48.60
2019-03-27T13:07:32.416Z,48.30
2019-03-27T13:09:58.744Z,48.20
2019-03-27T13:12:25.263Z,48.20
2019-03-27T13:14:52.625Z,48.20
2019-03-27T13:17:19.031Z,48.20
2019-03-27T13:19:45.653Z,43.80
2019-03-27T13:22:12.368Z,32.00
2019-03-27T13:24:42.712Z,36.30
2019-03-27T13:27:09.462Z,37.70
2019-03-27T13:29:35.997Z,38.00
2019-03-27T13:32:03.003Z,38.60
2019-03-27T13:34:29.538Z,39.30
2019-03-27T13:36:55.943Z,40.00
2019-03-27T13:39:22.490Z,40.40
2019-03-27T13:41:48.917Z,40.90
2019-03-27T13:44:15.229Z,41.30
2019-03-27T13:46:41.782Z,41.70
2019-03-27T13:49:08.295Z,41.90
2019-03-27T13:51:40.803Z,42.20
2019-03-27T13:54:03.773Z,42.50
2019-03-27T13:56:30.507Z,42.60
2019-03-27T13:58:56.920Z,42.80
2019-03-27T14:01:23.785Z,43.00
2019-03-27T14:03:50.337Z,43.10
2019-03-27T14:06:16.648Z,43.20
2019-03-27T14:08:43.259Z,43.40
2019-03-27T14:11:09.589Z,43.70
2019-03-27T14:13:36.141Z,43.80
2019-03-27T14:16:02.589Z,43.80
2019-03-27T14:18:28.900Z,43.90
2019-03-27T14:20:55.465Z,44.10
2019-03-27T14:23:21.886Z,44.20
2019-03-27T14:25:48.288Z,44.20
2019-03-27T14:28:14.721Z,44.20
2019-03-27T14:30:48.462Z,44.20
2019-03-27T14:33:14.769Z,44.20
2019-03-27T14:35:41.276Z,44.20
2019-03-27T14:38:07.724Z,44.30
2019-03-27T14:40:34.351Z,44.30
2019-03-27T14:43:01.105Z,44.30
2019-03-27T14:45:27.575Z,44.30
2019-03-27T14:47:53.940Z,44.30
2019-03-27T14:50:20.389Z,44.50
2019-03-27T14:52:46.796Z,44.50
2019-03-27T14:55:13.235Z,44.60
2019-03-27T14:57:39.644Z,44.30
2019-03-27T15:00:09.980Z,44.30
2019-03-27T15:02:38.975Z,44.30
2019-03-27T15:05:06.197Z,44.20
2019-03-27T15:07:32.841Z,44.30
2019-03-27T15:09:59.602Z,44.40
2019-03-27T15:12:26.008Z,44.20
2019-03-27T15:14:52.345Z,44.20
2019-03-27T15:17:18.899Z,44.30
2019-03-27T15:19:45.380Z,44.50
2019-03-27T15:22:21.657Z,44.50
2019-03-27T15:24:40.089Z,44.50
2019-03-27T15:27:06.620Z,44.40
2019-03-27T15:29:32.936Z,44.40
2019-03-27T15:31:59.514Z,44.30
2019-03-27T15:34:25.881Z,44.40
2019-03-27T15:36:52.190Z,44.50
2019-03-27T15:39:18.744Z,44.60
2019-03-27T15:41:45.258Z,44.60
2019-03-27T15:44:11.581Z,44.60
2019-03-27T15:46:37.997Z,44.60
2019-03-27T15:49:04.424Z,45.20
2019-03-27T15:51:30.735Z,44.60
2019-03-27T15:53:57.156Z,44.50
2019-03-27T15:56:30.136Z,44.50
2019-03-27T15:58:56.623Z,44.30
2019-03-27T16:01:23.097Z,44.30
2019-03-27T16:03:49.566Z,44.30
2019-03-27T16:06:15.972Z,44.50
2019-03-27T16:08:42.452Z,44.50
2019-03-27T16:11:08.804Z,44.50
2019-03-27T16:13:35.445Z,44.40
2019-03-27T16:16:01.757Z,44.50
2019-03-27T16:18:28.413Z,44.60
2019-03-27T16:20:54.820Z,44.60
2019-03-27T16:23:21.539Z,44.80
2019-03-27T16:25:47.897Z,44.80
2019-03-27T16:28:14.315Z,45.20
2019-03-27T16:30:40.828Z,44.80
2019-03-27T16:33:07.331Z,44.80
2019-03-27T16:35:34.211Z,44.60
2019-03-27T16:38:00.832Z,44.50
2019-03-27T16:40:43.487Z,44.60
2019-03-27T16:43:10.250Z,44.70
2019-03-27T16:45:37.504Z,44.60
2019-03-27T16:48:04.042Z,44.70
2019-03-27T16:50:30.435Z,44.70
2019-03-27T16:53:03.516Z,44.70
2019-03-27T16:55:24.977Z,44.70
2019-03-27T16:57:51.629Z,44.80
2019-03-27T17:00:18.820Z,44.80
2019-03-27T17:02:45.352Z,44.80
2019-03-27T17:05:11.892Z,44.80
2019-03-27T17:07:38.303Z,44.80
2019-03-27T17:10:05.916Z,44.70
2019-03-27T17:12:32.753Z,44.70
2019-03-27T17:14:59.063Z,44.60
2019-03-27T17:17:25.487Z,44.60
2019-03-27T17:19:51.999Z,44.70
2019-03-27T17:22:19.947Z,45.50
2019-03-27T17:24:46.670Z,44.80
2019-03-27T17:27:13.397Z,44.80
2019-03-27T17:29:39.800Z,45.30
2019-03-27T17:32:06.475Z,44.70
2019-03-27T17:34:32.814Z,44.70
2019-03-27T17:36:59.260Z,44.70
2019-03-27T17:39:25.560Z,44.50
2019-03-27T17:41:52.072Z,44.60
2019-03-27T17:44:18.384Z,44.70
2019-03-27T17:46:44.760Z,44.60
2019-03-27T17:49:11.024Z,44.50
2019-03-27T17:51:37.580Z,44.50
2019-03-27T17:54:03.887Z,44.50
2019-03-27T17:56:31.015Z,45.10
2019-03-27T17:58:59.816Z,45.30
2019-03-27T18:01:26.342Z,45.70
2019-03-27T18:03:53.032Z,46.50
2019-03-27T18:06:19.344Z,47.80
2019-03-27T18:08:48.451Z,47.30
2019-03-27T18:11:15.237Z,47.20
2019-03-27T18:13:41.611Z,47.10
2019-03-27T18:16:08.247Z,47.70
2019-03-27T18:18:34.790Z,48.30
2019-03-27T18:21:01.139Z,49.10
2019-03-27T18:23:27.557Z,49.80
2019-03-27T18:25:56.003Z,49.50
2019-03-27T18:28:22.968Z,49.60
2019-03-27T18:30:49.937Z,49.40
2019-03-27T18:33:17.775Z,49.70
2019-03-27T18:35:44.592Z,49.90
2019-03-27T18:38:11.292Z,49.80
2019-03-27T18:40:37.823Z,50.00
2019-03-27T18:43:04.134Z,50.20
2019-03-27T18:45:30.568Z,50.20
2019-03-27T18:47:56.974Z,50.50
2019-03-27T18:50:23.523Z,51.40
2019-03-27T18:52:49.940Z,51.00
2019-03-27T18:55:26.392Z,52.10
2019-03-27T18:57:44.579Z,53.60
2019-03-27T19:00:11.723Z,53.70
2019-03-27T19:02:38.199Z,54.20
2019-03-27T19:05:05.635Z,54.90
2019-03-27T19:07:32.264Z,55.10
2019-03-27T19:09:58.883Z,55.00
2019-03-27T19:12:27.032Z,55.00
2019-03-27T19:14:53.555Z,54.80
2019-03-27T19:17:19.867Z,54.70
2019-03-27T19:19:46.371Z,54.50
2019-03-27T19:22:12.701Z,54.00
2019-03-27T19:24:39.020Z,54.20
2019-03-27T19:27:06.266Z,54.10
2019-03-27T19:29:32.583Z,54.00
2019-03-27T19:31:59.561Z,53.90
2019-03-27T19:34:25.839Z,53.90
2019-03-27T19:36:52.257Z,53.70
2019-03-27T19:39:18.610Z,53.80
2019-03-27T19:41:46.303Z,53.70
2019-03-27T19:44:12.801Z,53.70
2019-03-27T19:46:39.379Z,53.60
2019-03-27T19:49:06.584Z,53.80
2019-03-27T19:51:33.043Z,53.90
2019-03-27T19:53:59.583Z,53.80
2019-03-27T19:56:26.003Z,53.90
2019-03-27T19:58:52.466Z,53.80
2019-03-27T20:01:18.859Z,53.80
2019-03-27T20:03:45.397Z,53.70
2019-03-27T20:06:11.748Z,54.10
2019-03-27T20:08:38.155Z,54.00
2019-03-27T20:11:04.607Z,54.00
2019-03-27T20:13:30.915Z,54.00
2019-03-27T20:15:57.317Z,54.00
2019-03-27T20:18:24.109Z,53.80
2019-03-27T20:20:50.529Z,53.70
2019-03-27T20:23:17.082Z,53.70
2019-03-27T20:25:43.613Z,53.90
2019-03-27T20:28:10.032Z,53.90
2019-03-27T20:30:36.342Z,53.80
2019-03-27T20:33:02.866Z,53.70
2019-03-27T20:35:29.429Z,53.60
2019-03-27T20:37:55.737Z,53.50
2019-03-27T20:40:22.371Z,53.40
2019-03-27T20:42:51.956Z,53.60
2019-03-27T20:45:16.917Z,53.80
2019-03-27T20:47:43.255Z,53.70
2019-03-27T20:50:09.666Z,53.60
2019-03-27T20:52:36.079Z,53.50
2019-03-27T20:55:04.104Z,53.60
2019-03-27T20:57:30.519Z,53.50
2019-03-27T20:59:56.852Z,53.40
2019-03-27T21:02:23.172Z,53.40
2019-03-27T21:04:49.599Z,53.30
2019-03-27T21:07:15.944Z,53.30
2019-03-27T21:09:42.256Z,53.30
2019-03-27T21:12:08.827Z,53.30
2019-03-27T21:14:35.347Z,53.30
2019-03-27T21:17:01.660Z,53.20
2019-03-27T21:19:27.975Z,53.20
2019-03-27T21:21:54.501Z,53.10
2019-03-27T21:24:20.948Z,53.20
2019-03-27T21:26:47.383Z,53.10
2019-03-27T21:29:14.361Z,53.10
2019-03-27T21:31:40.748Z,53.10
2019-03-27T21:34:07.180Z,53.30
2019-03-27T21:36:34.044Z,53.30
2019-03-27T21:39:00.364Z,53.30
2019-03-27T21:41:26.675Z,53.20
2019-03-27T21:43:53.008Z,53.30
2019-03-27T21:46:19.911Z,53.20
2019-03-27T21:48:46.351Z,53.20
2019-03-27T21:51:12.652Z,53.20
2019-03-27T21:53:39.060Z,53.20
2019-03-27T21:56:05.373Z,53.30
2019-03-27T21:58:31.784Z,53.40
2019-03-27T22:00:58.103Z,54.00
2019-03-27T22:03:24.531Z,53.40
2019-03-27T22:05:51.103Z,53.50
2019-03-27T22:08:17.535Z,53.50
2019-03-27T22:10:43.845Z,53.50
2019-03-27T22:13:10.251Z,53.50
2019-03-27T22:15:36.914Z,53.40
2019-03-27T22:18:03.217Z,53.30
2019-03-27T22:20:29.660Z,53.30
2019-03-27T22:22:56.066Z,53.40
2019-03-27T22:25:35.001Z,53.40
2019-03-27T22:27:50.700Z,53.40
2019-03-27T22:30:17.014Z,53.40
2019-03-27T22:32:43.373Z,53.40
2019-03-27T22:35:10.011Z,53.40
2019-03-27T22:37:36.327Z,53.50
2019-03-27T22:40:04.763Z,53.60
2019-03-27T22:42:31.171Z,53.70
2019-03-27T22:44:57.711Z,53.80
2019-03-27T22:47:24.325Z,53.80
2019-03-27T22:49:50.736Z,53.90
2019-03-27T22:52:17.161Z,54.00
2019-03-27T22:54:43.807Z,54.00
2019-03-27T22:57:10.239Z,54.10
2019-03-27T22:59:36.543Z,54.10
2019-03-27T23:02:02.959Z,54.10
2019-03-27T23:04:29.291Z,54.20
2019-03-27T23:06:55.804Z,54.10
2019-03-27T23:09:22.476Z,54.20
2019-03-27T23:11:48.928Z,54.10
2019-03-27T23:14:15.768Z,54.20
2019-03-27T23:16:42.379Z,54.30
2019-03-27T23:19:08.983Z,54.40
2019-03-27T23:21:35.686Z,54.40
2019-03-27T23:24:02.525Z,54.40
2019-03-27T23:26:28.999Z,54.60
2019-03-27T23:28:55.901Z,55.30
2019-03-27T23:31:22.448Z,54.70
2019-03-27T23:33:48.815Z,54.70
2019-03-27T23:36:15.331Z,54.70
2019-03-27T23:38:41.641Z,54.70
2019-03-27T23:41:08.275Z,54.80
2019-03-27T23:43:34.695Z,54.90
2019-03-27T23:46:01.469Z,54.90
2019-03-27T23:48:27.879Z,55.00
2019-03-27T23:50:54.327Z,54.90
2019-03-27T23:53:20.740Z,54.90
2019-03-27T23:55:47.251Z,55.00
2019-03-27T23:58:13.599Z,54.90
